sensor_id;sensor_type;location;lat;lon;timestamp;pressure;altitude;pressure_sealevel;temperature;humidity
32320;BME280;19080;51.750;5.888;2023-02-13T00:00:12;103505.47;;;7.84;100.00
32320;BME280;19080;51.750;5.888;2023-02-13T00:02:39;103513.22;;;7.95;100.00
32320;BME280;19080;51.750;5.888;2023-02-13T00:05:06;103457.31;;;7.64;100.00
32320;BME280;19080;51.750;5.888;2023-02-13T00:07:33;103520.16;;;7.93;100.00
32320;BME280;19080;51.750;5.888;2023-02-13T00:09:59;103518.53;;;7.95;100.00
32320;BME280;19080;51.750;5.888;2023-02-13T00:12:26;103434.41;;;7.51;100.00
32320;BME280;19080;51.750;5.888;2023-02-13T00:14:52;103507.94;;;7.95;100.00
32320;BME280;19080;51.750;5.888;2023-02-13T00:17:19;103506.00;;;7.92;100.00
32320;BME280;19080;51.750;5.888;2023-02-13T00:19:46;103527.41;;;8.08;100.00
32320;BME280;19080;51.750;5.888;2023-02-13T00:22:12;103504.50;;;7.96;100.00
32320;BME280;19080;51.750;5.888;2023-02-13T00:24:42;103502.44;;;7.92;100.00
32320;BME280;19080;51.750;5.888;2023-02-13T00:27:11;103428.53;;;7.55;100.00
32320;BME280;19080;51.750;5.888;2023-02-13T00:29:37;103511.22;;;8.04;100.00
32320;BME280;19080;51.750;5.888;2023-02-13T00:32:04;103525.97;;;8.13;100.00
32320;BME280;19080;51.750;5.888;2023-02-13T00:34:31;103523.66;;;8.18;100.00
32320;BME280;19080;51.750;5.888;2023-02-13T00:37:00;103415.63;;;7.60;100.00
32320;BME280;19080;51.750;5.888;2023-02-13T00:39:28;103500.75;;;8.05;100.00
32320;BME280;19080;51.750;5.888;2023-02-13T00:41:55;103393.84;;;7.50;100.00
32320;BME280;19080;51.750;5.888;2023-02-13T00:44:22;103401.06;;;7.53;100.00
32320;BME280;19080;51.750;5.888;2023-02-13T00:46:48;103428.47;;;7.67;100.00
32320;BME280;19080;51.750;5.888;2023-02-13T00:49:15;103496.16;;;8.03;100.00
32320;BME280;19080;51.750;5.888;2023-02-13T00:51:42;103501.06;;;8.10;100.00
32320;BME280;19080;51.750;5.888;2023-02-13T00:54:09;103498.00;;;8.04;100.00
32320;BME280;19080;51.750;5.888;2023-02-13T00:56:35;103456.25;;;7.87;100.00
32320;BME280;19080;51.750;5.888;2023-02-13T00:59:04;103412.38;;;7.64;100.00
32320;BME280;19080;51.750;5.888;2023-02-13T01:01:31;103515.91;;;8.21;100.00
32320;BME280;19080;51.750;5.888;2023-02-13T01:03:58;103493.94;;;8.09;100.00
32320;BME280;19080;51.750;5.888;2023-02-13T01:06:26;103419.59;;;7.66;100.00
32320;BME280;19080;51.750;5.888;2023-02-13T01:08:53;103399.97;;;7.63;100.00
32320;BME280;19080;51.750;5.888;2023-02-13T01:11:19;103493.13;;;8.10;100.00
32320;BME280;19080;51.750;5.888;2023-02-13T01:13:46;103491.50;;;8.12;100.00
32320;BME280;19080;51.750;5.888;2023-02-13T01:16:13;103521.31;;;8.23;100.00
32320;BME280;19080;51.750;5.888;2023-02-13T01:18:41;103505.22;;;8.20;100.00
32320;BME280;19080;51.750;5.888;2023-02-13T01:21:15;103526.22;;;8.30;100.00
32320;BME280;19080;51.750;5.888;2023-02-13T01:23:42;103495.88;;;8.11;100.00
32320;BME280;19080;51.750;5.888;2023-02-13T01:26:15;103403.53;;;7.63;100.00
32320;BME280;19080;51.750;5.888;2023-02-13T01:28:42;103504.72;;;8.25;100.00
32320;BME280;19080;51.750;5.888;2023-02-13T01:31:11;103503.59;;;8.22;100.00
32320;BME280;19080;51.750;5.888;2023-02-13T01:33:37;103397.44;;;7.64;100.00
32320;BME280;19080;51.750;5.888;2023-02-13T01:36:09;103523.81;;;8.33;100.00
32320;BME280;19080;51.750;5.888;2023-02-13T01:38:37;103496.19;;;8.16;100.00
32320;BME280;19080;51.750;5.888;2023-02-13T01:41:04;103402.72;;;7.64;100.00
32320;BME280;19080;51.750;5.888;2023-02-13T01:43:44;103527.56;;;8.36;100.00
32320;BME280;19080;51.750;5.888;2023-02-13T01:46:15;103480.91;;;8.12;100.00
32320;BME280;19080;51.750;5.888;2023-02-13T01:48:43;103489.56;;;8.23;100.00
32320;BME280;19080;51.750;5.888;2023-02-13T01:51:15;103351.66;;;7.52;100.00
32320;BME280;19080;51.750;5.888;2023-02-13T01:53:52;103476.75;;;8.29;100.00
32320;BME280;19080;51.750;5.888;2023-02-13T01:56:35;103479.59;;;8.32;100.00
32320;BME280;19080;51.750;5.888;2023-02-13T01:59:09;103475.94;;;8.30;100.00
32320;BME280;19080;51.750;5.888;2023-02-13T02:01:36;103494.28;;;8.40;100.00
32320;BME280;19080;51.750;5.888;2023-02-13T02:04:08;103418.22;;;7.98;100.00
32320;BME280;19080;51.750;5.888;2023-02-13T02:06:41;103491.53;;;8.38;100.00
32320;BME280;19080;51.750;5.888;2023-02-13T02:09:15;103455.97;;;8.22;100.00
32320;BME280;19080;51.750;5.888;2023-02-13T02:12:08;103506.19;;;8.46;100.00
32320;BME280;19080;51.750;5.888;2023-02-13T02:14:37;103499.78;;;8.43;100.00
32320;BME280;19080;51.750;5.888;2023-02-13T02:17:08;103504.47;;;8.34;100.00
32320;BME280;19080;51.750;5.888;2023-02-13T02:19:43;103503.09;;;8.27;100.00
32320;BME280;19080;51.750;5.888;2023-02-13T02:22:39;103501.16;;;8.25;100.00
32320;BME280;19080;51.750;5.888;2023-02-13T02:28:15;103495.25;;;8.15;100.00
32320;BME280;19080;51.750;5.888;2023-02-13T02:36:39;103499.81;;;8.05;100.00
32320;BME280;19080;51.750;5.888;2023-02-13T02:42:23;103486.19;;;7.99;100.00
32320;BME280;19080;51.750;5.888;2023-02-13T02:45:11;103405.66;;;7.56;100.00
32320;BME280;19080;51.750;5.888;2023-02-13T02:48:02;103480.50;;;8.06;100.00
32320;BME280;19080;51.750;5.888;2023-02-13T02:51:15;103499.94;;;8.20;100.00
32320;BME280;19080;51.750;5.888;2023-02-13T02:53:56;103398.25;;;7.63;100.00
32320;BME280;19080;51.750;5.888;2023-02-13T02:56:37;103341.47;;;7.32;100.00
32320;BME280;19080;51.750;5.888;2023-02-13T02:59:10;103471.03;;;8.09;100.00
32320;BME280;19080;51.750;5.888;2023-02-13T03:02:00;103467.38;;;8.07;100.00
32320;BME280;19080;51.750;5.888;2023-02-13T03:04:52;103472.56;;;8.06;100.00
32320;BME280;19080;51.750;5.888;2023-02-13T03:07:38;103492.81;;;8.19;100.00
32320;BME280;19080;51.750;5.888;2023-02-13T03:10:08;103498.22;;;8.20;100.00
32320;BME280;19080;51.750;5.888;2023-02-13T03:12:59;103410.25;;;7.71;100.00
32320;BME280;19080;51.750;5.888;2023-02-13T03:15:47;103464.81;;;7.96;100.00
32320;BME280;19080;51.750;5.888;2023-02-13T03:18:36;103459.84;;;8.00;100.00
32320;BME280;19080;51.750;5.888;2023-02-13T03:36:06;103507.16;;;8.22;100.00
32320;BME280;19080;51.750;5.888;2023-02-13T03:39:09;103392.06;;;7.63;100.00
32320;BME280;19080;51.750;5.888;2023-02-13T03:41:55;103505.34;;;8.21;100.00
32320;BME280;19080;51.750;5.888;2023-02-13T03:44:43;103457.69;;;7.95;100.00
32320;BME280;19080;51.750;5.888;2023-02-13T03:47:34;103461.75;;;8.03;100.00
32320;BME280;19080;51.750;5.888;2023-02-13T03:50:02;103479.06;;;8.11;100.00
32320;BME280;19080;51.750;5.888;2023-02-13T03:52:53;103406.59;;;7.69;100.00
32320;BME280;19080;51.750;5.888;2023-02-13T03:55:24;103459.84;;;8.00;100.00
32320;BME280;19080;51.750;5.888;2023-02-13T03:58:15;103471.94;;;8.10;100.00
32320;BME280;19080;51.750;5.888;2023-02-13T04:01:04;103479.59;;;8.19;100.00
32320;BME280;19080;51.750;5.888;2023-02-13T04:06:14;103477.84;;;8.19;100.00
32320;BME280;19080;51.750;5.888;2023-02-13T04:08:42;103475.31;;;8.21;100.00
32320;BME280;19080;51.750;5.888;2023-02-13T04:11:09;103497.00;;;8.28;100.00
32320;BME280;19080;51.750;5.888;2023-02-13T04:13:55;103453.63;;;8.00;100.00
32320;BME280;19080;51.750;5.888;2023-02-13T04:16:44;103479.69;;;8.20;100.00
32320;BME280;19080;51.750;5.888;2023-02-13T04:19:12;103406.19;;;7.76;100.00
32320;BME280;19080;51.750;5.888;2023-02-13T04:21:39;103453.63;;;8.00;100.00
32320;BME280;19080;51.750;5.888;2023-02-13T04:24:06;103483.16;;;8.19;100.00
32320;BME280;19080;51.750;5.888;2023-02-13T04:26:39;103399.47;;;7.68;100.00
32320;BME280;19080;51.750;5.888;2023-02-13T04:29:07;103462.59;;;8.02;100.00
32320;BME280;19080;51.750;5.888;2023-02-13T04:31:34;103443.84;;;7.86;100.00
32320;BME280;19080;51.750;5.888;2023-02-13T04:34:01;103484.16;;;8.08;100.00
32320;BME280;19080;51.750;5.888;2023-02-13T04:36:28;103470.69;;;7.92;100.00
32320;BME280;19080;51.750;5.888;2023-02-13T04:38:55;103489.34;;;8.06;100.00
32320;BME280;19080;51.750;5.888;2023-02-13T04:41:22;103386.63;;;7.48;100.00
32320;BME280;19080;51.750;5.888;2023-02-13T04:43:48;103379.81;;;7.38;100.00
32320;BME280;19080;51.750;5.888;2023-02-13T04:46:18;103495.25;;;8.02;100.00
32320;BME280;19080;51.750;5.888;2023-02-13T04:48:44;103490.56;;;7.98;100.00
32320;BME280;19080;51.750;5.888;2023-02-13T04:51:11;103395.88;;;7.41;100.00
32320;BME280;19080;51.750;5.888;2023-02-13T04:53:38;103489.94;;;7.89;100.00
32320;BME280;19080;51.750;5.888;2023-02-13T04:56:04;103387.84;;;7.40;100.00
32320;BME280;19080;51.750;5.888;2023-02-13T04:58:31;103456.13;;;7.72;100.00
32320;BME280;19080;51.750;5.888;2023-02-13T05:00:58;103360.63;;;7.16;100.00
32320;BME280;19080;51.750;5.888;2023-02-13T05:03:25;103482.59;;;7.85;100.00
32320;BME280;19080;51.750;5.888;2023-02-13T05:05:51;103398.19;;;7.37;100.00
32320;BME280;19080;51.750;5.888;2023-02-13T05:08:18;103423.41;;;7.45;100.00
32320;BME280;19080;51.750;5.888;2023-02-13T05:10:45;103472.41;;;7.78;100.00
32320;BME280;19080;51.750;5.888;2023-02-13T05:13:12;103374.88;;;7.18;100.00
32320;BME280;19080;51.750;5.888;2023-02-13T05:15:39;103390.22;;;7.24;100.00
32320;BME280;19080;51.750;5.888;2023-02-13T05:18:06;103429.63;;;7.45;100.00
32320;BME280;19080;51.750;5.888;2023-02-13T05:20:32;103346.84;;;6.82;100.00
32320;BME280;19080;51.750;5.888;2023-02-13T05:22:59;103443.91;;;7.36;100.00
32320;BME280;19080;51.750;5.888;2023-02-13T05:25:44;103466.41;;;7.42;100.00
32320;BME280;19080;51.750;5.888;2023-02-13T05:28:11;103316.19;;;6.59;100.00
32320;BME280;19080;51.750;5.888;2023-02-13T05:30:56;103450.59;;;7.31;100.00
32320;BME280;19080;51.750;5.888;2023-02-13T05:33:24;103419.56;;;7.15;100.00
32320;BME280;19080;51.750;5.888;2023-02-13T05:35:50;103439.66;;;7.13;100.00
32320;BME280;19080;51.750;5.888;2023-02-13T05:38:17;103426.28;;;6.98;100.00
32320;BME280;19080;51.750;5.888;2023-02-13T05:40:43;103360.50;;;6.51;100.00
32320;BME280;19080;51.750;5.888;2023-02-13T05:43:10;103456.78;;;6.93;100.00
32320;BME280;19080;51.750;5.888;2023-02-13T05:45:37;103343.47;;;6.23;100.00
32320;BME280;19080;51.750;5.888;2023-02-13T05:48:03;103343.13;;;6.18;100.00
32320;BME280;19080;51.750;5.888;2023-02-13T05:50:30;103342.00;;;6.15;100.00
32320;BME280;19080;51.750;5.888;2023-02-13T05:52:57;103466.91;;;6.75;100.00
32320;BME280;19080;51.750;5.888;2023-02-13T05:55:23;103361.25;;;6.14;100.00
32320;BME280;19080;51.750;5.888;2023-02-13T05:57:54;103467.38;;;6.70;100.00
32320;BME280;19080;51.750;5.888;2023-02-13T06:00:21;103473.72;;;6.60;100.00
32320;BME280;19080;51.750;5.888;2023-02-13T06:02:48;103442.88;;;6.36;100.00
32320;BME280;19080;51.750;5.888;2023-02-13T06:05:14;103358.03;;;5.83;100.00
32320;BME280;19080;51.750;5.888;2023-02-13T06:07:41;103350.81;;;5.80;100.00
32320;BME280;19080;51.750;5.888;2023-02-13T06:10:08;103471.78;;;6.46;100.00
32320;BME280;19080;51.750;5.888;2023-02-13T06:12:34;103439.44;;;6.25;100.00
32320;BME280;19080;51.750;5.888;2023-02-13T06:15:01;103440.59;;;6.17;100.00
32320;BME280;19080;51.750;5.888;2023-02-13T06:17:27;103375.13;;;5.76;100.00
32320;BME280;19080;51.750;5.888;2023-02-13T06:19:54;103376.38;;;5.70;100.00
32320;BME280;19080;51.750;5.888;2023-02-13T06:22:20;103424.56;;;5.91;100.00
32320;BME280;19080;51.750;5.888;2023-02-13T06:24:47;103379.56;;;5.54;100.00
32320;BME280;19080;51.750;5.888;2023-02-13T06:27:13;103434.94;;;5.77;100.00
32320;BME280;19080;51.750;5.888;2023-02-13T06:29:40;103444.91;;;5.81;100.00
32320;BME280;19080;51.750;5.888;2023-02-13T06:32:07;103425.38;;;5.56;100.00
32320;BME280;19080;51.750;5.888;2023-02-13T06:34:33;103441.66;;;5.62;100.00
32320;BME280;19080;51.750;5.888;2023-02-13T06:37:00;103352.47;;;5.10;100.00
32320;BME280;19080;51.750;5.888;2023-02-13T06:39:26;103355.00;;;5.08;100.00
32320;BME280;19080;51.750;5.888;2023-02-13T06:41:53;103447.50;;;5.58;100.00
32320;BME280;19080;51.750;5.888;2023-02-13T06:44:19;103418.56;;;5.36;100.00
32320;BME280;19080;51.750;5.888;2023-02-13T06:46:46;103467.78;;;5.59;100.00
32320;BME280;19080;51.750;5.888;2023-02-13T06:49:13;103453.91;;;5.50;100.00
32320;BME280;19080;51.750;5.888;2023-02-13T06:51:39;103450.22;;;5.48;100.00
32320;BME280;19080;51.750;5.888;2023-02-13T06:54:06;103471.44;;;5.61;100.00
32320;BME280;19080;51.750;5.888;2023-02-13T06:56:32;103468.47;;;5.56;100.00
32320;BME280;19080;51.750;5.888;2023-02-13T06:58:59;103440.38;;;5.45;100.00
32320;BME280;19080;51.750;5.888;2023-02-13T07:01:25;103419.25;;;5.34;100.00
32320;BME280;19080;51.750;5.888;2023-02-13T07:03:52;103441.84;;;5.42;100.00
32320;BME280;19080;51.750;5.888;2023-02-13T07:06:20;103459.97;;;5.49;100.00
32320;BME280;19080;51.750;5.888;2023-02-13T07:08:46;103464.06;;;5.45;100.00
32320;BME280;19080;51.750;5.888;2023-02-13T07:11:18;103391.28;;;5.12;100.00
32320;BME280;19080;51.750;5.888;2023-02-13T07:13:45;103458.13;;;5.48;100.00
32320;BME280;19080;51.750;5.888;2023-02-13T07:16:11;103404.94;;;5.18;100.00
32320;BME280;19080;51.750;5.888;2023-02-13T07:18:38;103377.88;;;5.09;100.00
32320;BME280;19080;51.750;5.888;2023-02-13T07:21:05;103443.47;;;5.51;100.00
32320;BME280;19080;51.750;5.888;2023-02-13T07:23:31;103481.56;;;5.78;100.00
32320;BME280;19080;51.750;5.888;2023-02-13T07:25:59;103327.47;;;4.93;100.00
32320;BME280;19080;51.750;5.888;2023-02-13T07:28:26;103413.91;;;5.44;100.00
32320;BME280;19080;51.750;5.888;2023-02-13T07:30:53;103488.72;;;5.91;100.00
32320;BME280;19080;51.750;5.888;2023-02-13T07:33:22;103501.59;;;5.98;100.00
32320;BME280;19080;51.750;5.888;2023-02-13T07:35:50;103488.16;;;5.95;100.00
32320;BME280;19080;51.750;5.888;2023-02-13T07:38:17;103518.59;;;6.25;100.00
32320;BME280;19080;51.750;5.888;2023-02-13T07:40:44;103502.41;;;6.56;100.00
32320;BME280;19080;51.750;5.888;2023-02-13T07:43:12;103501.84;;;6.96;100.00
32320;BME280;19080;51.750;5.888;2023-02-13T07:45:41;103497.03;;;7.27;100.00
32320;BME280;19080;51.750;5.888;2023-02-13T07:48:08;103490.94;;;7.53;100.00
32320;BME280;19080;51.750;5.888;2023-02-13T07:50:34;103505.41;;;7.96;100.00
32320;BME280;19080;51.750;5.888;2023-02-13T07:53:01;103482.75;;;8.13;100.00
32320;BME280;19080;51.750;5.888;2023-02-13T07:55:29;103490.72;;;8.53;100.00
32320;BME280;19080;51.750;5.888;2023-02-13T07:57:55;103487.19;;;8.80;100.00
32320;BME280;19080;51.750;5.888;2023-02-13T08:00:22;103487.13;;;9.06;100.00
32320;BME280;19080;51.750;5.888;2023-02-13T08:02:49;103428.25;;;8.97;100.00
32320;BME280;19080;51.750;5.888;2023-02-13T08:05:15;103479.25;;;9.64;100.00
32320;BME280;19080;51.750;5.888;2023-02-13T08:07:42;103477.97;;;9.87;100.00
32320;BME280;19080;51.750;5.888;2023-02-13T08:10:11;103422.72;;;9.94;100.00
32320;BME280;19080;51.750;5.888;2023-02-13T08:12:57;103504.50;;;10.46;100.00
32320;BME280;19080;51.750;5.888;2023-02-13T08:15:24;103509.94;;;10.78;100.00
32320;BME280;19080;51.750;5.888;2023-02-13T08:17:51;103482.88;;;10.85;100.00
32320;BME280;19080;51.750;5.888;2023-02-13T08:20:18;103468.63;;;10.99;100.00
32320;BME280;19080;51.750;5.888;2023-02-13T08:22:44;103500.88;;;11.54;100.00
32320;BME280;19080;51.750;5.888;2023-02-13T08:25:11;103514.25;;;11.72;100.00
32320;BME280;19080;51.750;5.888;2023-02-13T08:27:38;103516.00;;;11.88;100.00
32320;BME280;19080;51.750;5.888;2023-02-13T08:30:05;103521.47;;;12.43;100.00
32320;BME280;19080;51.750;5.888;2023-02-13T08:32:32;103521.41;;;12.41;100.00
32320;BME280;19080;51.750;5.888;2023-02-13T08:35:18;103525.38;;;12.67;100.00
32320;BME280;19080;51.750;5.888;2023-02-13T08:37:44;103525.44;;;12.86;100.00
32320;BME280;19080;51.750;5.888;2023-02-13T08:40:13;103468.31;;;12.81;100.00
32320;BME280;19080;51.750;5.888;2023-02-13T08:42:40;103448.91;;;12.66;100.00
32320;BME280;19080;51.750;5.888;2023-02-13T08:45:07;103537.19;;;13.27;100.00
32320;BME280;19080;51.750;5.888;2023-02-13T08:47:36;103532.63;;;13.24;100.00
32320;BME280;19080;51.750;5.888;2023-02-13T08:50:03;103530.03;;;13.26;100.00
32320;BME280;19080;51.750;5.888;2023-02-13T08:52:31;103543.03;;;13.38;100.00
32320;BME280;19080;51.750;5.888;2023-02-13T08:54:57;103531.59;;;13.59;100.00
32320;BME280;19080;51.750;5.888;2023-02-13T08:57:24;103535.38;;;13.84;100.00
32320;BME280;19080;51.750;5.888;2023-02-13T08:59:50;103537.03;;;14.01;100.00
32320;BME280;19080;51.750;5.888;2023-02-13T09:02:17;103524.78;;;14.06;100.00
32320;BME280;19080;51.750;5.888;2023-02-13T09:04:43;103544.09;;;14.41;100.00
32320;BME280;19080;51.750;5.888;2023-02-13T09:07:10;103485.69;;;14.08;100.00
32320;BME280;19080;51.750;5.888;2023-02-13T09:09:36;103547.25;;;14.51;100.00
32320;BME280;19080;51.750;5.888;2023-02-13T09:12:03;103530.28;;;14.72;100.00
32320;BME280;19080;51.750;5.888;2023-02-13T09:14:30;103530.22;;;14.70;100.00
32320;BME280;19080;51.750;5.888;2023-02-13T09:16:57;103530.59;;;14.79;100.00
32320;BME280;19080;51.750;5.888;2023-02-13T09:19:23;103441.91;;;14.46;100.00
32320;BME280;19080;51.750;5.888;2023-02-13T09:21:50;103533.28;;;15.02;99.42
32320;BME280;19080;51.750;5.888;2023-02-13T09:24:16;103536.19;;;14.85;100.00
32320;BME280;19080;51.750;5.888;2023-02-13T09:26:43;103531.94;;;14.90;99.83
32320;BME280;19080;51.750;5.888;2023-02-13T09:29:10;103517.34;;;15.05;99.58
32320;BME280;19080;51.750;5.888;2023-02-13T09:31:36;103449.94;;;14.91;97.26
32320;BME280;19080;51.750;5.888;2023-02-13T09:34:03;103524.09;;;15.40;96.65
32320;BME280;19080;51.750;5.888;2023-02-13T09:36:30;103534.06;;;15.68;93.94
32320;BME280;19080;51.750;5.888;2023-02-13T09:38:56;103535.81;;;15.91;89.77
32320;BME280;19080;51.750;5.888;2023-02-13T09:41:28;103441.56;;;15.52;85.46
32320;BME280;19080;51.750;5.888;2023-02-13T09:44:04;103537.97;;;16.01;85.63
32320;BME280;19080;51.750;5.888;2023-02-13T09:46:39;103501.06;;;15.69;85.85
32320;BME280;19080;51.750;5.888;2023-02-13T09:49:11;103536.53;;;16.11;86.01
32320;BME280;19080;51.750;5.888;2023-02-13T09:51:40;103540.13;;;16.37;84.88
32320;BME280;19080;51.750;5.888;2023-02-13T09:54:13;103505.19;;;16.60;79.88
32320;BME280;19080;51.750;5.888;2023-02-13T09:56:50;103507.25;;;16.96;76.35
32320;BME280;19080;51.750;5.888;2023-02-13T09:59:42;103536.75;;;17.23;71.79
32320;BME280;19080;51.750;5.888;2023-02-13T10:05:17;103450.00;;;16.96;68.89
32320;BME280;19080;51.750;5.888;2023-02-13T10:10:52;103526.41;;;17.98;65.04
32320;BME280;19080;51.750;5.888;2023-02-13T10:16:32;103512.88;;;17.95;63.92
32320;BME280;19080;51.750;5.888;2023-02-13T10:19:34;103530.03;;;18.33;61.70
32320;BME280;19080;51.750;5.888;2023-02-13T10:22:45;103533.75;;;18.05;61.63
32320;BME280;19080;51.750;5.888;2023-02-13T10:25:19;103527.38;;;18.35;61.80
32320;BME280;19080;51.750;5.888;2023-02-13T10:27:57;103442.75;;;18.20;60.42
32320;BME280;19080;51.750;5.888;2023-02-13T10:30:31;103527.78;;;18.50;59.45
32320;BME280;19080;51.750;5.888;2023-02-13T10:38:42;103506.59;;;19.00;56.05
32320;BME280;19080;51.750;5.888;2023-02-13T10:41:23;103522.06;;;19.10;56.62
32320;BME280;19080;51.750;5.888;2023-02-13T10:44:04;103440.41;;;18.70;56.32
32320;BME280;19080;51.750;5.888;2023-02-13T10:46:46;103446.50;;;18.62;56.62
32320;BME280;19080;51.750;5.888;2023-02-13T10:57:27;103512.09;;;19.46;53.62
32320;BME280;19080;51.750;5.888;2023-02-13T11:03:01;103496.31;;;20.11;52.48
32320;BME280;19080;51.750;5.888;2023-02-13T11:05:34;103433.88;;;19.87;52.00
32320;BME280;19080;51.750;5.888;2023-02-13T11:08:02;103424.84;;;19.85;52.37
32320;BME280;19080;51.750;5.888;2023-02-13T11:10:29;103402.06;;;20.21;51.41
32320;BME280;19080;51.750;5.888;2023-02-13T11:12:57;103464.16;;;20.76;50.23
32320;BME280;19080;51.750;5.888;2023-02-13T11:15:40;103463.97;;;21.29;49.27
32320;BME280;19080;51.750;5.888;2023-02-13T11:18:18;103479.38;;;21.36;48.25
32320;BME280;19080;51.750;5.888;2023-02-13T11:20:46;103362.91;;;20.44;48.17
32320;BME280;19080;51.750;5.888;2023-02-13T11:26:01;103455.63;;;20.49;48.98
32320;BME280;19080;51.750;5.888;2023-02-13T11:28:30;103463.97;;;20.64;49.53
32320;BME280;19080;51.750;5.888;2023-02-13T11:31:09;103435.91;;;21.21;48.26
32320;BME280;19080;51.750;5.888;2023-02-13T11:33:36;103428.09;;;21.42;47.23
32320;BME280;19080;51.750;5.888;2023-02-13T11:36:08;103454.94;;;22.07;46.01
32320;BME280;19080;51.750;5.888;2023-02-13T11:38:35;103429.00;;;22.34;45.74
32320;BME280;19080;51.750;5.888;2023-02-13T11:41:10;103370.16;;;22.05;45.50
32320;BME280;19080;51.750;5.888;2023-02-13T11:43:49;103444.31;;;22.27;44.51
32320;BME280;19080;51.750;5.888;2023-02-13T11:46:21;103365.84;;;21.33;45.84
32320;BME280;19080;51.750;5.888;2023-02-13T11:49:04;103442.59;;;21.48;46.27
32320;BME280;19080;51.750;5.888;2023-02-13T11:54:01;103417.25;;;22.29;44.27
32320;BME280;19080;51.750;5.888;2023-02-13T11:56:46;103439.97;;;22.54;43.89
32320;BME280;19080;51.750;5.888;2023-02-13T11:59:41;103435.19;;;22.15;44.20
32320;BME280;19080;51.750;5.888;2023-02-13T12:02:19;103352.53;;;21.53;44.87
32320;BME280;19080;51.750;5.888;2023-02-13T12:04:49;103345.81;;;22.05;44.30
32320;BME280;19080;51.750;5.888;2023-02-13T12:07:26;103421.34;;;23.07;43.36
32320;BME280;19080;51.750;5.888;2023-02-13T12:12:44;103431.34;;;23.25;42.70
32320;BME280;19080;51.750;5.888;2023-02-13T12:15:18;103396.91;;;22.98;42.31
32320;BME280;19080;51.750;5.888;2023-02-13T12:17:53;103439.59;;;23.54;41.19
32320;BME280;19080;51.750;5.888;2023-02-13T12:20:22;103341.66;;;22.65;41.55
32320;BME280;19080;51.750;5.888;2023-02-13T12:26:02;103402.59;;;24.29;39.87
32320;BME280;19080;51.750;5.888;2023-02-13T12:28:54;103425.16;;;24.60;39.35
32320;BME280;19080;51.750;5.888;2023-02-13T12:48:45;103411.63;;;19.08;50.07
32320;BME280;19080;51.750;5.888;2023-02-13T12:56:11;103293.69;;;21.23;44.72
32320;BME280;19080;51.750;5.888;2023-02-13T12:59:00;103357.44;;;21.95;44.42
32320;BME280;19080;51.750;5.888;2023-02-13T13:01:58;103385.19;;;23.05;42.69
32320;BME280;19080;51.750;5.888;2023-02-13T13:04:47;103386.72;;;22.57;43.12
32320;BME280;19080;51.750;5.888;2023-02-13T13:13:02;103361.19;;;22.10;43.51
32320;BME280;19080;51.750;5.888;2023-02-13T13:15:42;103348.75;;;22.36;42.63
32320;BME280;19080;51.750;5.888;2023-02-13T13:23:31;103368.78;;;21.56;43.69
32320;BME280;19080;51.750;5.888;2023-02-13T13:28:59;103350.31;;;22.03;42.93
32320;BME280;19080;51.750;5.888;2023-02-13T13:31:27;103274.16;;;21.55;42.84
32320;BME280;19080;51.750;5.888;2023-02-13T13:33:59;103360.38;;;22.24;42.71
32320;BME280;19080;51.750;5.888;2023-02-13T13:42:38;103348.44;;;21.99;42.88
32320;BME280;19080;51.750;5.888;2023-02-13T13:48:18;103337.75;;;21.21;43.82
32320;BME280;19080;51.750;5.888;2023-02-13T13:50:50;103323.72;;;20.73;45.16
32320;BME280;19080;51.750;5.888;2023-02-13T13:53:19;103289.47;;;20.06;46.01
32320;BME280;19080;51.750;5.888;2023-02-13T14:04:01;103257.03;;;16.72;55.01
32320;BME280;19080;51.750;5.888;2023-02-13T14:09:42;103336.78;;;17.09;57.82
32320;BME280;19080;51.750;5.888;2023-02-13T14:14:51;103292.66;;;16.68;59.78
32320;BME280;19080;51.750;5.888;2023-02-13T14:20:36;103311.50;;;16.69;63.54
32320;BME280;19080;51.750;5.888;2023-02-13T14:31:25;103295.84;;;16.26;67.59
32320;BME280;19080;51.750;5.888;2023-02-13T14:36:39;103304.59;;;17.43;65.45
32320;BME280;19080;51.750;5.888;2023-02-13T14:44:17;103263.19;;;17.35;60.50
32320;BME280;19080;51.750;5.888;2023-02-13T14:46:46;103255.38;;;17.79;59.24
32320;BME280;19080;51.750;5.888;2023-02-13T14:49:27;103226.78;;;18.21;57.77
32320;BME280;19080;51.750;5.888;2023-02-13T14:51:57;103222.22;;;18.60;55.46
32320;BME280;19080;51.750;5.888;2023-02-13T14:57:03;103288.97;;;19.74;52.05
32320;BME280;19080;51.750;5.888;2023-02-13T14:59:34;103289.81;;;20.29;50.77
32320;BME280;19080;51.750;5.888;2023-02-13T15:02:36;103296.44;;;19.92;50.71
32320;BME280;19080;51.750;5.888;2023-02-13T15:05:05;103309.19;;;19.01;53.00
32320;BME280;19080;51.750;5.888;2023-02-13T15:07:35;103257.91;;;18.10;54.96
32320;BME280;19080;51.750;5.888;2023-02-13T15:13:00;103225.00;;;16.78;61.19
32320;BME280;19080;51.750;5.888;2023-02-13T15:15:31;103315.63;;;16.59;67.46
32320;BME280;19080;51.750;5.888;2023-02-13T15:18:01;103225.25;;;15.97;70.33
32320;BME280;19080;51.750;5.888;2023-02-13T15:20:32;103305.13;;;16.09;71.70
32320;BME280;19080;51.750;5.888;2023-02-13T15:23:00;103273.34;;;15.39;77.73
32320;BME280;19080;51.750;5.888;2023-02-13T15:25:35;103283.34;;;15.19;84.12
32320;BME280;19080;51.750;5.888;2023-02-13T15:28:14;103226.44;;;14.50;89.99
32320;BME280;19080;51.750;5.888;2023-02-13T15:33:23;103280.47;;;14.65;96.77
32320;BME280;19080;51.750;5.888;2023-02-13T15:35:55;103267.50;;;14.29;98.86
32320;BME280;19080;51.750;5.888;2023-02-13T15:38:33;103294.47;;;13.91;100.00
32320;BME280;19080;51.750;5.888;2023-02-13T15:41:04;103298.03;;;13.48;100.00
32320;BME280;19080;51.750;5.888;2023-02-13T15:43:34;103286.06;;;13.18;100.00